createdAt,value
2019-01-04T00:01:55.296Z,11.83
2019-01-04T00:07:00.348Z,13.33
2019-01-04T00:12:05.344Z,13.83
2019-01-04T00:17:10.433Z,12.70
2019-01-04T00:22:15.407Z,14.80
2019-01-04T00:27:20.436Z,11.63
2019-01-04T00:32:25.407Z,14.00
2019-01-04T00:37:30.482Z,11.47
2019-01-04T00:42:35.565Z,10.23
2019-01-04T00:47:40.665Z,9.90
2019-01-04T00:52:45.715Z,9.00
2019-01-04T00:58:08.618Z,7.90
2019-01-04T01:03:50.175Z,8.40
2019-01-04T01:09:39.483Z,7.53
2019-01-04T01:15:20.672Z,7.03
2019-01-04T01:21:20.972Z,7.83
2019-01-04T01:27:05.089Z,7.60
2019-01-04T01:32:59.227Z,7.67
2019-01-04T01:38:50.221Z,7.67
2019-01-04T01:44:54.710Z,6.83
2019-01-04T01:50:36.844Z,7.80
2019-01-04T01:55:41.855Z,5.87
2019-01-04T02:00:46.855Z,5.37
2019-01-04T02:05:51.879Z,7.03
2019-01-04T02:10:56.874Z,5.10
2019-01-04T02:16:01.872Z,5.33
2019-01-04T02:21:06.860Z,3.40
2019-01-04T02:26:11.899Z,3.67
2019-01-04T02:31:16.881Z,6.50
2019-01-04T02:36:21.982Z,12.00
2019-01-04T02:41:27.012Z,15.40
2019-01-04T02:46:32.010Z,17.77
2019-01-04T02:51:37.017Z,18.50
2019-01-04T02:56:42.003Z,17.80
2019-01-04T03:01:47.039Z,11.43
2019-01-04T03:06:52.051Z,7.40
2019-01-04T03:11:57.103Z,7.07
2019-01-04T03:17:02.148Z,7.73
2019-01-04T03:22:07.146Z,7.23
2019-01-04T03:27:12.146Z,7.20
2019-01-04T03:32:17.269Z,6.43
2019-01-04T03:37:22.328Z,6.73
2019-01-04T03:42:27.418Z,5.27
2019-01-04T03:47:32.463Z,5.07
2019-01-04T03:52:37.467Z,5.37
2019-01-04T03:57:42.487Z,4.93
2019-01-04T04:02:47.578Z,6.47
2019-01-04T04:07:52.580Z,6.57
2019-01-04T04:12:57.589Z,5.97
2019-01-04T04:18:02.582Z,9.97
2019-01-04T04:23:07.583Z,10.30
2019-01-04T04:28:12.576Z,10.77
2019-01-04T04:33:17.574Z,5.83
2019-01-04T04:38:22.636Z,16.87
2019-01-04T04:43:27.672Z,6.73
2019-01-04T04:48:32.684Z,5.93
2019-01-04T04:53:37.830Z,9.67
2019-01-04T04:58:42.829Z,48.43
2019-01-04T05:03:48.714Z,11.90
2019-01-04T05:08:53.749Z,10.57
2019-01-04T05:13:58.737Z,10.77
2019-01-04T05:19:03.745Z,10.60
2019-01-04T05:24:08.777Z,8.40
2019-01-04T05:29:13.839Z,8.57
2019-01-04T05:34:19.314Z,9.83
2019-01-04T05:39:24.984Z,9.90
2019-01-04T05:44:29.987Z,15.07
2019-01-04T05:49:35.331Z,13.60
2019-01-04T05:54:40.345Z,29.63
2019-01-04T05:59:45.440Z,10.60
2019-01-04T06:04:50.471Z,16.03
2019-01-04T06:09:55.788Z,10.63
2019-01-04T06:15:00.850Z,13.97
2019-01-04T06:20:06.935Z,31.07
2019-01-04T06:25:11.928Z,18.20
2019-01-04T06:30:17.048Z,12.47
2019-01-04T06:35:22.621Z,11.60
2019-01-04T06:40:27.888Z,11.20
2019-01-04T06:45:32.957Z,11.27
2019-01-04T06:50:38.428Z,15.83
2019-01-04T06:55:55.179Z,25.97
2019-01-04T07:01:00.276Z,24.80
2019-01-04T07:06:05.386Z,27.87
2019-01-04T07:11:10.472Z,19.67
2019-01-04T07:16:15.515Z,19.80
2019-01-04T07:21:20.588Z,16.73
2019-01-04T07:26:26.181Z,38.87
2019-01-04T07:31:32.553Z,21.13
2019-01-04T07:36:39.748Z,36.77
2019-01-04T07:41:45.107Z,9.40
2019-01-04T07:46:52.854Z,14.33
2019-01-04T07:51:58.185Z,8.83
2019-01-04T07:57:03.417Z,13.63
2019-01-04T08:02:52.498Z,8.23
2019-01-04T08:07:58.507Z,11.77
2019-01-04T08:13:04.278Z,28.57
2019-01-04T08:18:10.500Z,11.60
2019-01-04T08:23:15.764Z,12.67
2019-01-04T08:28:21.918Z,34.73
2019-01-04T08:33:27.326Z,22.87
2019-01-04T08:38:33.124Z,43.17
2019-01-04T08:43:39.574Z,34.00
2019-01-04T08:48:44.795Z,15.53
2019-01-04T08:53:57.814Z,72.60
2019-01-04T08:59:03.222Z,34.57
2019-01-04T09:04:09.063Z,29.93
2019-01-04T09:09:14.323Z,46.77
2019-01-04T09:14:19.647Z,40.97
2019-01-04T09:19:25.065Z,58.83
2019-01-04T09:24:30.109Z,43.30
2019-01-04T09:29:36.931Z,55.20
2019-01-04T09:34:41.941Z,47.00
2019-01-04T09:39:46.935Z,47.27
2019-01-04T09:44:51.919Z,48.40
2019-01-04T09:49:56.968Z,51.57
2019-01-04T09:55:01.972Z,44.33
2019-01-04T10:00:10.645Z,46.87
2019-01-04T10:05:15.680Z,50.80
2019-01-04T10:10:20.676Z,44.87
2019-01-04T10:15:25.688Z,48.63
2019-01-04T10:20:30.678Z,54.77
2019-01-04T10:25:35.695Z,50.67
2019-01-04T10:30:40.680Z,55.93
2019-01-04T10:35:45.682Z,49.97
2019-01-04T10:40:50.672Z,35.97
2019-01-04T10:45:55.651Z,46.80
2019-01-04T10:51:00.685Z,47.43
2019-01-04T10:56:05.728Z,60.87
2019-01-04T11:01:10.853Z,85.07
2019-01-04T11:06:15.856Z,98.47
2019-01-04T11:11:20.872Z,113.10
2019-01-04T11:16:25.887Z,115.30
2019-01-04T11:21:30.889Z,88.23
2019-01-04T11:26:57.143Z,72.80
2019-01-04T11:32:40.367Z,50.30
2019-01-04T11:38:41.303Z,58.13
2019-01-04T11:44:20.763Z,43.13
2019-01-04T11:49:34.666Z,41.57
2019-01-04T11:54:39.701Z,47.90
2019-01-04T11:59:44.694Z,38.53
2019-01-04T12:04:49.715Z,40.90
2019-01-04T12:09:54.717Z,25.40
2019-01-04T12:14:59.720Z,31.17
2019-01-04T12:20:05.732Z,14.53
2019-01-04T12:25:10.709Z,13.23
2019-01-04T12:30:15.696Z,12.40
2019-01-04T12:35:20.692Z,12.93
2019-01-04T12:40:25.712Z,33.23
2019-01-04T12:45:30.695Z,46.20
2019-01-04T12:50:35.683Z,91.17
2019-01-04T12:55:40.691Z,128.97
2019-01-04T13:00:45.667Z,126.73
2019-01-04T13:05:50.681Z,74.83
2019-01-04T13:10:55.720Z,60.93
2019-01-04T13:16:00.708Z,91.47
2019-01-04T13:21:05.808Z,89.80
2019-01-04T13:26:10.813Z,128.33
2019-01-04T13:31:15.815Z,154.13
2019-01-04T13:36:20.852Z,161.73
2019-01-04T13:41:25.907Z,176.03
2019-01-04T13:46:30.963Z,184.27
2019-01-04T13:51:35.965Z,172.27
2019-01-04T13:56:40.979Z,162.53
2019-01-04T14:01:45.983Z,138.67
2019-01-04T14:06:51.203Z,68.27
2019-01-04T14:11:56.199Z,16.93
2019-01-04T14:17:01.257Z,19.03
2019-01-04T14:22:06.200Z,13.87
2019-01-04T14:27:12.667Z,17.17
2019-01-04T14:32:17.786Z,11.50
2019-01-04T14:37:23.425Z,12.10
2019-01-04T14:42:28.504Z,11.07
2019-01-04T14:47:36.973Z,10.33
2019-01-04T14:52:43.224Z,12.10
2019-01-04T14:57:48.544Z,13.07
2019-01-04T15:02:53.526Z,14.10
2019-01-04T15:07:58.707Z,15.73
2019-01-04T15:13:03.679Z,12.80
2019-01-04T15:18:08.683Z,12.60
2019-01-04T15:23:13.675Z,65.93
2019-01-04T15:28:18.651Z,17.67
2019-01-04T15:33:23.623Z,19.20
2019-01-04T15:38:28.604Z,21.23
2019-01-04T15:43:33.903Z,18.47
2019-01-04T15:48:38.953Z,37.87
2019-01-04T15:53:44.196Z,40.43
2019-01-04T15:58:49.177Z,36.23
2019-01-04T16:03:55.961Z,44.10
2019-01-04T16:09:01.175Z,60.67
2019-01-04T16:14:07.623Z,62.67
2019-01-04T16:19:12.598Z,61.87
2019-01-04T16:24:17.582Z,53.13
2019-01-04T16:29:22.569Z,58.83
2019-01-04T16:34:27.538Z,66.43
2019-01-04T16:39:32.510Z,71.70
2019-01-04T16:44:37.502Z,70.27
2019-01-04T16:49:42.540Z,85.57
2019-01-04T16:54:47.534Z,82.40
2019-01-04T16:59:52.523Z,87.33
2019-01-04T17:04:57.522Z,79.70
2019-01-04T17:10:02.500Z,98.37
2019-01-04T17:15:08.097Z,79.73
2019-01-04T17:20:13.079Z,96.13
2019-01-04T17:25:18.064Z,139.50
2019-01-04T17:30:23.062Z,88.93
2019-01-04T17:35:28.046Z,101.97
2019-01-04T17:40:33.042Z,80.70
2019-01-04T17:45:38.074Z,96.20
2019-01-04T17:50:43.073Z,121.30
2019-01-04T17:55:48.077Z,109.63
2019-01-04T18:00:53.062Z,110.80
2019-01-04T18:05:58.031Z,103.50
2019-01-04T18:11:03.030Z,116.60
2019-01-04T18:16:08.068Z,129.03
2019-01-04T18:21:13.052Z,143.27
2019-01-04T18:26:24.216Z,134.93
2019-01-04T18:31:24.652Z,126.07
2019-01-04T18:36:29.650Z,164.20
2019-01-04T18:41:34.848Z,180.20
2019-01-04T18:46:39.899Z,105.33
2019-01-04T18:51:44.887Z,99.17
2019-01-04T18:56:50.445Z,83.77
2019-01-04T19:01:55.444Z,78.03
2019-01-04T19:07:00.443Z,57.37
2019-01-04T19:12:05.426Z,49.67
2019-01-04T19:17:10.529Z,51.53
2019-01-04T19:22:15.508Z,47.53
2019-01-04T19:27:21.272Z,28.37
2019-01-04T19:32:26.230Z,35.30
2019-01-04T19:37:31.213Z,33.50
2019-01-04T19:42:36.191Z,33.67
2019-01-04T19:47:41.497Z,46.17
2019-01-04T19:52:46.488Z,60.40
2019-01-04T19:57:51.557Z,88.93
2019-01-04T20:02:56.537Z,84.30
2019-01-04T20:08:54.800Z,140.20
2019-01-04T20:15:03.671Z,103.00
2019-01-04T20:20:28.632Z,127.87
2019-01-04T20:25:51.442Z,96.00
2019-01-04T20:31:27.639Z,118.70
2019-01-04T20:42:31.504Z,114.30
2019-01-04T20:47:55.630Z,103.57
2019-01-04T20:53:28.911Z,172.03
2019-01-04T20:58:58.550Z,123.23
2019-01-04T21:04:22.506Z,140.00
2019-01-04T21:09:51.866Z,120.13
2019-01-04T21:15:14.855Z,102.80
2019-01-04T21:20:41.553Z,69.23
2019-01-04T21:26:05.517Z,79.67
2019-01-04T21:31:38.587Z,164.27
2019-01-04T21:37:13.967Z,141.10
2019-01-04T21:42:36.599Z,143.93
2019-01-04T21:48:03.699Z,173.43
2019-01-04T21:53:33.442Z,91.50
2019-01-04T21:58:56.168Z,113.93
2019-01-04T22:04:28.907Z,78.27
2019-01-04T22:09:58.748Z,115.33
2019-01-04T22:15:21.639Z,82.33
2019-01-04T22:21:00.934Z,58.17
2019-01-04T22:26:22.717Z,55.00
2019-01-04T22:31:45.202Z,58.83
2019-01-04T22:37:14.925Z,53.83
2019-01-04T22:42:42.003Z,42.53
2019-01-04T22:48:03.229Z,44.17
2019-01-04T22:53:24.861Z,42.40
2019-01-04T22:58:57.750Z,43.20
2019-01-04T23:04:34.390Z,45.47
2019-01-04T23:10:07.579Z,35.03
2019-01-04T23:15:37.542Z,41.17
2019-01-04T23:21:04.652Z,38.77
2019-01-04T23:26:35.935Z,43.40
2019-01-04T23:31:55.543Z,41.27
2019-01-04T23:37:17.998Z,49.73
2019-01-04T23:42:40.703Z,56.30
2019-01-04T23:48:07.643Z,53.77
2019-01-04T23:53:34.515Z,58.17
2019-01-04T23:59:01.200Z,63.67
